Darstellungsparameter: Aktuell verwendete Einstellungen:
Skalierung der Graphiken ... ?
xyx+y,   Skalierungsfaktor:      Skalierung: Modus: x, Faktor: 1
Darstellungszeitraum ... ?
Vom - - bis: - -   Zeitraum: 25.06.2020 - 27.06.2020
Min/Max/Avg-Anzeige ... ?
Zeige MMA aktuell
Zeige MMA Monat
Zeige MMA alles
Zeige --A aktuell
Zeige --A Monat
Zeige --A alles
Keine MMA-Anzeige
MMA:
Keine MMA-Graphiken
MMA-Basis: 25.06.2020 - 27.06.2020
Quicknavigation für Darstellung... ?
Tage:      1T, 2T, 3T, 5T -1T -2T -3T -5T +1T +2T +3T +5T
Wochen: 1W, 2W, 3W -1W -2W -3W +1W +2W +3W
Monate: 1M, 3M, 6M -1M -3M -6M +1M +3M +6M
Jahre:    1J, 3J, 5J, 10J -1J -3J -5J -10J +1J +3J +5J +10J
Nutze für die Darstellung ... ?
Originaldaten oder Mittelwerte auf ...
Stundenbasis Tagesbasis Wochenbasis
Monatsbasis Jahresbasis      Datenbasis: Original-Daten
Darstellen als:
Statistik (Auto) Statistik J:M      Darstellung:
Zur Graphik,    zurück zur Übersicht aller Sensoren.
 
Tabellarische Datenbersicht: ?
 
Sensor: Nr:Datum:Temp:Abs-Feuchte:Windchill:Wind:
Aussen-T/F 1 25-06-2020 00:00:00 19.2 C 11.05 g/m*3 19.2 C 3.2 km/h
2 25-06-2020 00:05:00 19.1 C 11.15 g/m*3 19.1 C 4.8 km/h
3 25-06-2020 00:10:00 19 C 10.76 g/m*3 19 C 3.2 km/h
4 25-06-2020 00:15:00 18.9 C 11.18 g/m*3 18.9 C 1.6 km/h
5 25-06-2020 00:20:00 18.8 C 11.11 g/m*3 18.8 C 3.2 km/h
6 25-06-2020 00:25:00 18.7 C 11.05 g/m*3 18.7 C 0 km/h
7 25-06-2020 00:30:00 18.6 C 10.98 g/m*3 18.6 C 1.6 km/h
8 25-06-2020 00:35:00 18.5 C 11.08 g/m*3 18.5 C 3.2 km/h
9 25-06-2020 00:40:00 18.4 C 11.01 g/m*3 18.4 C 0 km/h
10 25-06-2020 00:45:00 18.3 C 11.1 g/m*3 18.3 C 0 km/h
11 25-06-2020 00:50:00 18.2 C 10.88 g/m*3 18.2 C 3.2 km/h
12 25-06-2020 00:55:00 18.3 C 11.1 g/m*3 18.3 C 1.6 km/h
13 25-06-2020 01:00:00 18.3 C 10.94 g/m*3 18.3 C 1.6 km/h
14 25-06-2020 01:05:00 18.3 C 11.1 g/m*3 18.3 C 0 km/h
15 25-06-2020 01:10:00 18.4 C 11.01 g/m*3 18.4 C 4.8 km/h
16 25-06-2020 01:15:00 18.4 C 11.01 g/m*3 18.4 C 3.2 km/h
17 25-06-2020 01:20:00 18.4 C 11.01 g/m*3 18.4 C 0 km/h
18 25-06-2020 01:25:00 18.3 C 10.94 g/m*3 18.3 C 1.6 km/h
19 25-06-2020 01:30:00 18.3 C 11.1 g/m*3 18.3 C 0 km/h
20 25-06-2020 01:35:00 18.1 C 10.97 g/m*3 18.1 C 1.6 km/h
21 25-06-2020 01:40:00 18.1 C 10.97 g/m*3 18.1 C 3.2 km/h
22 25-06-2020 01:45:00 18 C 11.06 g/m*3 18 C 1.6 km/h
23 25-06-2020 01:50:00 18 C 11.06 g/m*3 18 C 0 km/h
24 25-06-2020 01:55:00 17.9 C 10.99 g/m*3 17.9 C 1.6 km/h
25 25-06-2020 02:00:00 17.9 C 10.99 g/m*3 17.9 C 1.6 km/h
Sensor: Nr:Datum:Temp:Abs-Feuchte:Windchill:Wind:
Aussen-T/F 26 25-06-2020 02:05:00 17.7 C 11.01 g/m*3 17.7 C 0 km/h
27 25-06-2020 02:10:00 17.6 C 10.95 g/m*3 17.6 C 0 km/h
28 25-06-2020 02:15:00 17.4 C 10.97 g/m*3 17.4 C 0 km/h
29 25-06-2020 02:20:00 17.3 C 10.9 g/m*3 17.3 C 0 km/h
30 25-06-2020 02:25:00 17.2 C 10.84 g/m*3 17.2 C 0 km/h
31 25-06-2020 02:30:00 17 C 10.85 g/m*3 17 C 0 km/h
32 25-06-2020 02:35:00 16.8 C 10.87 g/m*3 16.8 C 0 km/h
33 25-06-2020 02:40:00 16.7 C 10.8 g/m*3 16.7 C 0 km/h
34 25-06-2020 02:45:00 16.6 C 10.88 g/m*3 16.6 C 0 km/h
35 25-06-2020 02:50:00 16.5 C 10.81 g/m*3 16.5 C 0 km/h
36 25-06-2020 02:55:00 16.4 C 10.89 g/m*3 16.4 C 0 km/h
37 25-06-2020 03:00:00 16.3 C 10.82 g/m*3 16.3 C 0 km/h
38 25-06-2020 03:05:00 16.2 C 10.76 g/m*3 16.2 C 0 km/h
39 25-06-2020 03:10:00 16.1 C 10.83 g/m*3 16.1 C 0 km/h
40 25-06-2020 03:15:00 16.1 C 10.83 g/m*3 16.1 C 0 km/h
41 25-06-2020 03:20:00 15.9 C 10.7 g/m*3 15.9 C 4.8 km/h
42 25-06-2020 03:25:00 15.9 C 10.83 g/m*3 15.9 C 1.6 km/h
43 25-06-2020 03:30:00 15.8 C 10.77 g/m*3 15.8 C 3.2 km/h
44 25-06-2020 03:35:00 15.8 C 10.77 g/m*3 15.8 C 4.8 km/h
45 25-06-2020 03:40:00 15.8 C 10.77 g/m*3 15.8 C 3.2 km/h
46 25-06-2020 03:45:00 15.8 C 10.9 g/m*3 15.8 C 3.2 km/h
47 25-06-2020 03:50:00 15.7 C 10.84 g/m*3 15.7 C 0 km/h
48 25-06-2020 03:55:00 15.7 C 10.84 g/m*3 15.7 C 0 km/h
49 25-06-2020 04:00:00 15.6 C 10.77 g/m*3 15.6 C 0 km/h
50 25-06-2020 04:05:00 15.5 C 10.84 g/m*3 15.5 C 1.6 km/h
Sensor: Nr:Datum:Temp:Abs-Feuchte:Windchill:Wind:
Aussen-T/F 51 25-06-2020 04:10:00 15.4 C 10.77 g/m*3 15.4 C 1.6 km/h
52 25-06-2020 04:15:00 15.4 C 10.77 g/m*3 15.4 C 1.6 km/h
53 25-06-2020 04:20:00 15.3 C 10.71 g/m*3 15.3 C 3.2 km/h
54 25-06-2020 04:25:00 15.3 C 10.84 g/m*3 15.3 C 1.6 km/h
55 25-06-2020 04:30:00 15.2 C 10.77 g/m*3 15.2 C 1.6 km/h
56 25-06-2020 04:35:00 15.1 C 10.71 g/m*3 15.1 C 1.6 km/h
57 25-06-2020 04:40:00 15 C 10.77 g/m*3 15 C 1.6 km/h
58 25-06-2020 04:45:00 14.9 C 10.71 g/m*3 14.9 C 0 km/h
59 25-06-2020 04:50:00 14.9 C 10.71 g/m*3 14.9 C 1.6 km/h
60 25-06-2020 04:55:00 14.8 C 10.77 g/m*3 14.8 C 1.6 km/h
61 25-06-2020 05:00:00 14.8 C 10.77 g/m*3 14.8 C 4.8 km/h
62 25-06-2020 05:05:00 14.7 C 10.7 g/m*3 14.7 C 3.2 km/h
63 25-06-2020 05:10:00 14.7 C 10.7 g/m*3 14.7 C 3.2 km/h
64 25-06-2020 05:15:00 14.7 C 10.83 g/m*3 14.7 C 1.6 km/h
65 25-06-2020 05:20:00 14.6 C 10.76 g/m*3 14.6 C 0 km/h
66 25-06-2020 05:25:00 14.6 C 10.76 g/m*3 14.6 C 0 km/h
67 25-06-2020 05:30:00 14.6 C 10.89 g/m*3 14.6 C 0 km/h
68 25-06-2020 05:35:00 14.6 C 10.89 g/m*3 14.6 C 0 km/h
69 25-06-2020 05:40:00 14.5 C 10.82 g/m*3 14.5 C 0 km/h
70 25-06-2020 05:45:00 14.5 C 10.82 g/m*3 14.5 C 0 km/h
71 25-06-2020 05:50:00 14.5 C 10.82 g/m*3 14.5 C 1.6 km/h
72 25-06-2020 05:55:00 14.5 C 10.94 g/m*3 14.5 C 1.6 km/h
73 25-06-2020 06:00:00 14.5 C 10.94 g/m*3 14.5 C 0 km/h
74 25-06-2020 06:05:00 14.5 C 10.94 g/m*3 14.5 C 3.2 km/h
75 25-06-2020 06:10:00 14.5 C 10.94 g/m*3 14.5 C 1.6 km/h
Sensor: Nr:Datum:Temp:Abs-Feuchte:Windchill:Wind:
Aussen-T/F 76 25-06-2020 06:15:00 14.6 C 11.01 g/m*3 14.6 C 3.2 km/h
77 25-06-2020 06:20:00 14.6 C 11.01 g/m*3 14.6 C 3.2 km/h
78 25-06-2020 06:25:00 14.6 C 11.01 g/m*3 14.6 C 4.8 km/h
79 25-06-2020 06:30:00 14.7 C 11.08 g/m*3 14.7 C 3.2 km/h
80 25-06-2020 06:35:00 14.7 C 11.21 g/m*3 14.7 C 3.2 km/h
81 25-06-2020 06:40:00 14.7 C 11.21 g/m*3 14.7 C 1.6 km/h
82 25-06-2020 06:45:00 14.8 C 11.27 g/m*3 14.8 C 1.6 km/h
83 25-06-2020 06:50:00 14.9 C 11.34 g/m*3 14.9 C 3.2 km/h
84 25-06-2020 06:55:00 15 C 11.41 g/m*3 15 C 1.6 km/h
85 25-06-2020 07:00:00 15.2 C 11.42 g/m*3 15.2 C 6.4 km/h
86 25-06-2020 07:05:00 15.3 C 11.49 g/m*3 15.3 C 1.6 km/h
87 25-06-2020 07:10:00 15.6 C 11.7 g/m*3 15.6 C 0 km/h
88 25-06-2020 07:15:00 15.8 C 11.71 g/m*3 15.8 C 3.2 km/h
89 25-06-2020 07:20:00 15.9 C 11.78 g/m*3 15.9 C 3.2 km/h
90 25-06-2020 07:25:00 16 C 11.72 g/m*3 16 C 0 km/h
91 25-06-2020 07:30:00 16.1 C 11.79 g/m*3 16.1 C 3.2 km/h
92 25-06-2020 07:35:00 16.1 C 11.79 g/m*3 16.1 C 0 km/h
93 25-06-2020 07:40:00 16.1 C 11.79 g/m*3 16.1 C 1.6 km/h
94 25-06-2020 07:45:00 16.2 C 11.86 g/m*3 16.2 C 4.8 km/h
95 25-06-2020 07:50:00 16.2 C 11.86 g/m*3 16.2 C 0 km/h
96 25-06-2020 07:55:00 16.3 C 11.93 g/m*3 16.3 C 1.6 km/h
97 25-06-2020 08:00:00 16.4 C 11.86 g/m*3 16.4 C 1.6 km/h
98 25-06-2020 08:05:00 16.6 C 12.15 g/m*3 16.6 C 1.6 km/h
99 25-06-2020 08:10:00 16.8 C 12.01 g/m*3 16.8 C 4.8 km/h
100 25-06-2020 08:15:00 17 C 12.15 g/m*3 17 C 1.6 km/h
Sensor: Nr:Datum:Temp:Abs-Feuchte:Windchill:Wind:
Aussen-T/F 101 25-06-2020 08:20:00 17.2 C 12.3 g/m*3 17.2 C 3.2 km/h
102 25-06-2020 08:25:00 17.2 C 12.3 g/m*3 17.2 C 1.6 km/h
103 25-06-2020 08:30:00 17.3 C 12.23 g/m*3 17.3 C 3.2 km/h
104 25-06-2020 08:35:00 17.4 C 12.3 g/m*3 17.4 C 1.6 km/h
105 25-06-2020 08:40:00 17.5 C 12.37 g/m*3 17.5 C 0 km/h
106 25-06-2020 08:45:00 17.7 C 12.52 g/m*3 17.7 C 3.2 km/h
107 25-06-2020 08:50:00 17.9 C 12.52 g/m*3 17.9 C 3.2 km/h
108 25-06-2020 08:55:00 18.1 C 12.36 g/m*3 18.1 C 8.1 km/h
109 25-06-2020 09:00:00 18.3 C 12.66 g/m*3 18.3 C 8.1 km/h
110 25-06-2020 09:05:00 18.6 C 12.89 g/m*3 18.6 C 6.4 km/h
111 25-06-2020 09:10:00 18.8 C 12.56 g/m*3 18.8 C 4.8 km/h
112 25-06-2020 09:15:00 19.1 C 12.29 g/m*3 19.1 C 3.2 km/h
113 25-06-2020 09:20:00 19.6 C 12.32 g/m*3 19.6 C 8.1 km/h
114 25-06-2020 09:25:00 20.2 C 12.59 g/m*3 20.2 C 6.4 km/h
115 25-06-2020 09:30:00 20.5 C 12.28 g/m*3 20.5 C 4.8 km/h
116 25-06-2020 09:35:00 20.9 C 12.57 g/m*3 20.9 C 8.1 km/h
117 25-06-2020 09:40:00 21.2 C 12.42 g/m*3 21.2 C 9.7 km/h
118 25-06-2020 09:45:00 21.4 C 12.37 g/m*3 21.4 C 8.1 km/h
119 25-06-2020 09:50:00 21.7 C 12.4 g/m*3 21.7 C 14.5 km/h
120 25-06-2020 09:55:00 21.8 C 12.28 g/m*3 21.8 C 16.1 km/h
121 25-06-2020 10:00:00 22.1 C 12.69 g/m*3 22.1 C 16.1 km/h
122 25-06-2020 10:05:00 22.2 C 12.57 g/m*3 22.2 C 9.7 km/h
123 25-06-2020 10:10:00 22.4 C 12.31 g/m*3 22.4 C 11.3 km/h
124 25-06-2020 10:15:00 22.7 C 12.53 g/m*3 22.7 C 11.3 km/h
125 25-06-2020 10:20:00 23.1 C 12.4 g/m*3 23.1 C 16.1 km/h
Sensor: Nr:Datum:Temp:Abs-Feuchte:Windchill:Wind:
Aussen-T/F 126 25-06-2020 10:25:00 23.3 C 12.75 g/m*3 23.3 C 9.7 km/h
127 25-06-2020 10:30:00 23.6 C 12.76 g/m*3 23.6 C 11.3 km/h
128 25-06-2020 10:35:00 23.8 C 12.69 g/m*3 23.8 C 11.3 km/h
129 25-06-2020 10:40:00 24.1 C 12.69 g/m*3 24.1 C 8.1 km/h
130 25-06-2020 10:45:00 24.2 C 12.98 g/m*3 24.2 C 9.7 km/h
131 25-06-2020 10:50:00 24.2 C 12.54 g/m*3 24.2 C 9.7 km/h
132 25-06-2020 10:55:00 24.3 C 12.83 g/m*3 24.3 C 9.7 km/h
133 25-06-2020 11:00:00 24.4 C 12.69 g/m*3 24.4 C 12.9 km/h
134 25-06-2020 11:05:00 24.4 C 12.69 g/m*3 24.4 C 12.9 km/h
135 25-06-2020 11:10:00 24.5 C 12.98 g/m*3 24.5 C 8.1 km/h
136 25-06-2020 11:15:00 24.6 C 12.83 g/m*3 24.6 C 17.7 km/h
137 25-06-2020 11:20:00 24.6 C 12.6 g/m*3 24.6 C 14.5 km/h
138 25-06-2020 11:25:00 24.8 C 12.75 g/m*3 24.8 C 12.9 km/h
139 25-06-2020 11:30:00 24.8 C 12.52 g/m*3 24.8 C 17.7 km/h
140 25-06-2020 11:35:00 24.7 C 12.68 g/m*3 24.7 C 17.7 km/h
141 25-06-2020 11:40:00 24.8 C 12.75 g/m*3 24.8 C 16.1 km/h
142 25-06-2020 11:45:00 24.8 C 12.75 g/m*3 24.8 C 11.3 km/h
143 25-06-2020 11:50:00 24.8 C 12.97 g/m*3 24.8 C 9.7 km/h
144 25-06-2020 11:55:00 24.9 C 12.82 g/m*3 24.9 C 11.3 km/h
145 25-06-2020 12:00:00 25 C 12.89 g/m*3 25 C 8.1 km/h
146 25-06-2020 12:05:00 25.1 C 12.73 g/m*3 25.1 C 22.5 km/h
147 25-06-2020 12:10:00 25.2 C 12.8 g/m*3 25.2 C 14.5 km/h
148 25-06-2020 12:15:00 25.3 C 12.64 g/m*3 25.3 C 14.5 km/h
149 25-06-2020 12:20:00 25.3 C 12.64 g/m*3 25.3 C 9.7 km/h
150 25-06-2020 12:25:00 25.3 C 12.64 g/m*3 25.3 C 16.1 km/h
Sensor: Nr:Datum:Temp:Abs-Feuchte:Windchill:Wind:
Aussen-T/F 151 25-06-2020 12:30:00 25.4 C 12.95 g/m*3 25.4 C 4.8 km/h
152 25-06-2020 12:35:00 25.5 C 12.78 g/m*3 25.5 C 14.5 km/h
153 25-06-2020 12:40:00 25.7 C 12.69 g/m*3 25.7 C 16.1 km/h
154 25-06-2020 12:45:00 25.8 C 12.76 g/m*3 25.8 C 11.3 km/h
155 25-06-2020 12:50:00 25.9 C 12.83 g/m*3 25.9 C 14.5 km/h
156 25-06-2020 12:55:00 26 C 12.66 g/m*3 26 C 12.9 km/h
157 25-06-2020 13:00:00 26.1 C 12.73 g/m*3 26.1 C 14.5 km/h
158 25-06-2020 13:05:00 26.2 C 13.05 g/m*3 26.2 C 11.3 km/h
159 25-06-2020 13:10:00 26.3 C 12.63 g/m*3 26.3 C 16.1 km/h
160 25-06-2020 13:15:00 26.3 C 12.87 g/m*3 26.3 C 16.1 km/h
161 25-06-2020 13:20:00 26.4 C 13.19 g/m*3 26.4 C 12.9 km/h
162 25-06-2020 13:25:00 26.7 C 13.42 g/m*3 26.7 C 8.1 km/h
163 25-06-2020 13:30:00 27.1 C 13.2 g/m*3 27.1 C 20.9 km/h
164 25-06-2020 13:35:00 27.2 C 13.27 g/m*3 27.2 C 19.3 km/h
165 25-06-2020 13:40:00 27.1 C 13.2 g/m*3 27.1 C 11.3 km/h
166 25-06-2020 13:45:00 27.1 C 13.2 g/m*3 27.1 C 14.5 km/h
167 25-06-2020 13:50:00 27.3 C 13.08 g/m*3 27.3 C 12.9 km/h
168 25-06-2020 13:55:00 27.3 C 13.61 g/m*3 27.3 C 9.7 km/h
169 25-06-2020 14:00:00 27.4 C 13.68 g/m*3 27.4 C 14.5 km/h
170 25-06-2020 14:05:00 27.4 C 13.42 g/m*3 27.4 C 17.7 km/h
171 25-06-2020 14:10:00 27.3 C 13.08 g/m*3 27.3 C 16.1 km/h
172 25-06-2020 14:15:00 27.3 C 13.08 g/m*3 27.3 C 12.9 km/h
173 25-06-2020 14:20:00 27.4 C 12.89 g/m*3 27.4 C 20.9 km/h
174 25-06-2020 14:25:00 27.3 C 13.34 g/m*3 27.3 C 14.5 km/h
175 25-06-2020 14:30:00 27 C 13.38 g/m*3 27 C 17.7 km/h
Sensor: Nr:Datum:Temp:Abs-Feuchte:Windchill:Wind:
Aussen-T/F 176 25-06-2020 14:35:00 26.8 C 13.24 g/m*3 26.8 C 12.9 km/h
177 25-06-2020 14:40:00 26.8 C 13.74 g/m*3 26.8 C 11.3 km/h
178 25-06-2020 14:45:00 26.7 C 13.42 g/m*3 26.7 C 8.1 km/h
179 25-06-2020 14:50:00 26.6 C 13.34 g/m*3 26.6 C 14.5 km/h
180 25-06-2020 14:55:00 26.6 C 13.84 g/m*3 26.6 C 8.1 km/h
181 25-06-2020 15:00:00 26.5 C 13.52 g/m*3 26.5 C 12.9 km/h
182 25-06-2020 15:05:00 26.5 C 13.77 g/m*3 26.5 C 14.5 km/h
183 25-06-2020 15:10:00 26.6 C 13.84 g/m*3 26.6 C 11.3 km/h
184 25-06-2020 15:15:00 26.7 C 13.92 g/m*3 26.7 C 8.1 km/h
185 25-06-2020 15:20:00 26.8 C 14 g/m*3 26.8 C 8.1 km/h
186 25-06-2020 15:25:00 26.9 C 14.33 g/m*3 26.9 C 8.1 km/h
187 25-06-2020 15:30:00 27.1 C 14.23 g/m*3 27.1 C 8.1 km/h
188 25-06-2020 15:35:00 27 C 14.15 g/m*3 27 C 11.3 km/h
189 25-06-2020 15:40:00 26.8 C 14 g/m*3 26.8 C 9.7 km/h
190 25-06-2020 15:45:00 26.7 C 13.92 g/m*3 26.7 C 9.7 km/h
191 25-06-2020 15:50:00 26.6 C 14.1 g/m*3 26.6 C 6.4 km/h
192 25-06-2020 15:55:00 26.6 C 14.35 g/m*3 26.6 C 6.4 km/h
193 25-06-2020 16:00:00 26.6 C 14.35 g/m*3 26.6 C 8.1 km/h
194 25-06-2020 16:05:00 26.5 C 14.27 g/m*3 26.5 C 8.1 km/h
195 25-06-2020 16:10:00 26.3 C 14.11 g/m*3 26.3 C 8.1 km/h
196 25-06-2020 16:15:00 26.2 C 14.28 g/m*3 26.2 C 8.1 km/h
197 25-06-2020 16:20:00 26.1 C 14.2 g/m*3 26.1 C 8.1 km/h
198 25-06-2020 16:25:00 25.9 C 14.28 g/m*3 25.9 C 3.2 km/h
199 25-06-2020 16:30:00 25.9 C 14.53 g/m*3 25.9 C 4.8 km/h
200 25-06-2020 16:35:00 25.9 C 14.28 g/m*3 25.9 C 9.7 km/h
Sensor: Nr:Datum:Temp:Abs-Feuchte:Windchill:Wind:
Aussen-T/F 201 25-06-2020 16:40:00 26 C 14.61 g/m*3 26 C 11.3 km/h
202 25-06-2020 16:45:00 26.1 C 14.44 g/m*3 26.1 C 8.1 km/h
203 25-06-2020 16:50:00 26.1 C 14.44 g/m*3 26.1 C 6.4 km/h
204 25-06-2020 16:55:00 26.2 C 14.52 g/m*3 26.2 C 8.1 km/h
205 25-06-2020 17:00:00 26.3 C 14.61 g/m*3 26.3 C 8.1 km/h
206 25-06-2020 17:05:00 26.2 C 14.52 g/m*3 26.2 C 9.7 km/h
207 25-06-2020 17:10:00 26.2 C 14.77 g/m*3 26.2 C 8.1 km/h
208 25-06-2020 17:15:00 26.1 C 14.69 g/m*3 26.1 C 11.3 km/h
209 25-06-2020 17:20:00 26.1 C 14.69 g/m*3 26.1 C 11.3 km/h
210 25-06-2020 17:25:00 26.1 C 14.69 g/m*3 26.1 C 12.9 km/h
211 25-06-2020 17:30:00 26.1 C 14.44 g/m*3 26.1 C 11.3 km/h
212 25-06-2020 17:35:00 26.2 C 14.52 g/m*3 26.2 C 8.1 km/h
213 25-06-2020 17:40:00 26.2 C 14.28 g/m*3 26.2 C 14.5 km/h
214 25-06-2020 17:45:00 26.3 C 14.85 g/m*3 26.3 C 9.7 km/h
215 25-06-2020 17:50:00 26.4 C 14.69 g/m*3 26.4 C 8.1 km/h
216 25-06-2020 17:55:00 26.5 C 14.77 g/m*3 26.5 C 8.1 km/h
217 25-06-2020 18:00:00 26.6 C 14.85 g/m*3 26.6 C 4.8 km/h
218 25-06-2020 18:05:00 26.7 C 14.93 g/m*3 26.7 C 12.9 km/h
219 25-06-2020 18:10:00 26.6 C 14.85 g/m*3 26.6 C 9.7 km/h
220 25-06-2020 18:15:00 26.8 C 14.76 g/m*3 26.8 C 11.3 km/h
221 25-06-2020 18:20:00 26.7 C 14.68 g/m*3 26.7 C 9.7 km/h
222 25-06-2020 18:25:00 26.4 C 14.69 g/m*3 26.4 C 8.1 km/h
223 25-06-2020 18:30:00 26.2 C 14.77 g/m*3 26.2 C 6.4 km/h
224 25-06-2020 18:35:00 26.1 C 14.69 g/m*3 26.1 C 6.4 km/h
225 25-06-2020 18:40:00 26.3 C 14.85 g/m*3 26.3 C 4.8 km/h
Sensor: Nr:Datum:Temp:Abs-Feuchte:Windchill:Wind:
Aussen-T/F 226 25-06-2020 18:45:00 26.9 C 15.61 g/m*3 26.9 C 6.4 km/h
227 25-06-2020 18:50:00 27.2 C 15.09 g/m*3 27.2 C 11.3 km/h
228 25-06-2020 18:55:00 27.5 C 15.08 g/m*3 27.5 C 6.4 km/h
229 25-06-2020 19:00:00 27.9 C 15.15 g/m*3 27.9 C 8.1 km/h
230 25-06-2020 19:05:00 28.1 C 14.77 g/m*3 28.1 C 9.7 km/h
231 25-06-2020 19:10:00 28.3 C 14.65 g/m*3 28.3 C 8.1 km/h
232 25-06-2020 19:15:00 28.1 C 14.77 g/m*3 28.1 C 6.4 km/h
233 25-06-2020 19:20:00 28.1 C 15.04 g/m*3 28.1 C 6.4 km/h
234 25-06-2020 19:25:00 28.1 C 14.77 g/m*3 28.1 C 8.1 km/h
235 25-06-2020 19:30:00 27.7 C 14.44 g/m*3 27.7 C 8.1 km/h
236 25-06-2020 19:35:00 27.6 C 14.63 g/m*3 27.6 C 8.1 km/h
237 25-06-2020 19:40:00 27.4 C 14.21 g/m*3 27.4 C 8.1 km/h
238 25-06-2020 19:45:00 27.1 C 13.97 g/m*3 27.1 C 9.7 km/h
239 25-06-2020 19:50:00 26.9 C 14.08 g/m*3 26.9 C 9.7 km/h
240 25-06-2020 19:55:00 26.7 C 14.17 g/m*3 26.7 C 11.3 km/h
241 25-06-2020 20:00:00 26.7 C 14.17 g/m*3 26.7 C 11.3 km/h
242 25-06-2020 20:05:00 26.7 C 14.17 g/m*3 26.7 C 6.4 km/h
243 25-06-2020 20:10:00 26.6 C 14.35 g/m*3 26.6 C 6.4 km/h
244 25-06-2020 20:15:00 26.7 C 14.17 g/m*3 26.7 C 6.4 km/h
245 25-06-2020 20:20:00 26.8 C 14.25 g/m*3 26.8 C 4.8 km/h
246 25-06-2020 20:25:00 26.8 C 14.25 g/m*3 26.8 C 8.1 km/h
247 25-06-2020 20:30:00 26.8 C 14.25 g/m*3 26.8 C 8.1 km/h
248 25-06-2020 20:35:00 26.7 C 14.17 g/m*3 26.7 C 6.4 km/h
249 25-06-2020 20:40:00 26.6 C 14.35 g/m*3 26.6 C 6.4 km/h
250 25-06-2020 20:45:00 26.6 C 14.35 g/m*3 26.6 C 3.2 km/h
Sensor: Nr:Datum:Temp:Abs-Feuchte:Windchill:Wind:
Aussen-T/F 251 25-06-2020 20:50:00 26.6 C 14.1 g/m*3 26.6 C 4.8 km/h
252 25-06-2020 20:55:00 26.4 C 15.19 g/m*3 26.4 C 3.2 km/h
253 25-06-2020 21:00:00 26.3 C 15.35 g/m*3 26.3 C 0 km/h
254 25-06-2020 21:05:00 26.1 C 15.18 g/m*3 26.1 C 0 km/h
255 25-06-2020 21:10:00 25.9 C 15.25 g/m*3 25.9 C 0 km/h
256 25-06-2020 21:15:00 25.5 C 14.91 g/m*3 25.5 C 4.8 km/h
257 25-06-2020 21:20:00 25.2 C 14.9 g/m*3 25.2 C 3.2 km/h
258 25-06-2020 21:25:00 24.8 C 14.8 g/m*3 24.8 C 1.6 km/h
259 25-06-2020 21:30:00 24.4 C 14.69 g/m*3 24.4 C 0 km/h
260 25-06-2020 21:35:00 24.1 C 14.66 g/m*3 24.1 C 0 km/h
261 25-06-2020 21:40:00 23.8 C 14.63 g/m*3 23.8 C 3.2 km/h
262 25-06-2020 21:45:00 23.6 C 14.68 g/m*3 23.6 C 3.2 km/h
263 25-06-2020 21:50:00 23.3 C 14.43 g/m*3 23.3 C 3.2 km/h
264 25-06-2020 21:55:00 23 C 14.39 g/m*3 23 C 6.4 km/h
265 25-06-2020 22:00:00 22.7 C 14.14 g/m*3 22.7 C 4.8 km/h
266 25-06-2020 22:05:00 22.5 C 13.98 g/m*3 22.5 C 4.8 km/h
267 25-06-2020 22:10:00 22.3 C 13.82 g/m*3 22.3 C 3.2 km/h
268 25-06-2020 22:15:00 22 C 13.59 g/m*3 22 C 3.2 km/h
269 25-06-2020 22:20:00 21.8 C 13.62 g/m*3 21.8 C 0 km/h
270 25-06-2020 22:25:00 21.6 C 13.47 g/m*3 21.6 C 0 km/h
271 25-06-2020 22:30:00 21.4 C 13.5 g/m*3 21.4 C 0 km/h
272 25-06-2020 22:35:00 21.2 C 13.34 g/m*3 21.2 C 4.8 km/h
273 25-06-2020 22:40:00 20.9 C 13.3 g/m*3 20.9 C 1.6 km/h
274 25-06-2020 22:45:00 20.8 C 13.22 g/m*3 20.8 C 4.8 km/h
275 25-06-2020 22:50:00 20.6 C 13.24 g/m*3 20.6 C 4.8 km/h
Sensor: Nr:Datum:Temp:Abs-Feuchte:Windchill:Wind:
Aussen-T/F 276 25-06-2020 22:55:00 20.4 C 13.09 g/m*3 20.4 C 4.8 km/h
277 25-06-2020 23:00:00 20.3 C 13.19 g/m*3 20.3 C 4.8 km/h
278 25-06-2020 23:05:00 20.2 C 13.29 g/m*3 20.2 C 6.4 km/h
279 25-06-2020 23:10:00 20 C 13.13 g/m*3 20 C 6.4 km/h
280 25-06-2020 23:15:00 19.9 C 13.06 g/m*3 19.9 C 4.8 km/h
281 25-06-2020 23:20:00 19.8 C 12.98 g/m*3 19.8 C 4.8 km/h
282 25-06-2020 23:25:00 19.7 C 13.08 g/m*3 19.7 C 3.2 km/h
283 25-06-2020 23:30:00 19.6 C 13 g/m*3 19.6 C 1.6 km/h
284 25-06-2020 23:35:00 19.4 C 13.01 g/m*3 19.4 C 3.2 km/h
285 25-06-2020 23:40:00 19.2 C 12.86 g/m*3 19.2 C 4.8 km/h
286 25-06-2020 23:45:00 19.1 C 12.95 g/m*3 19.1 C 4.8 km/h
287 25-06-2020 23:50:00 19 C 12.87 g/m*3 19 C 4.8 km/h
288 25-06-2020 23:55:00 18.9 C 12.96 g/m*3 18.9 C 3.2 km/h
289 26-06-2020 00:00:00 18.8 C 12.88 g/m*3 18.8 C 1.6 km/h
290 26-06-2020 00:05:00 18.6 C 12.73 g/m*3 18.6 C 3.2 km/h
291 26-06-2020 00:10:00 18.5 C 12.66 g/m*3 18.5 C 0 km/h
292 26-06-2020 00:15:00 18.4 C 12.74 g/m*3 18.4 C 1.6 km/h
293 26-06-2020 00:20:00 18.3 C 12.66 g/m*3 18.3 C 1.6 km/h
294 26-06-2020 00:25:00 18.2 C 12.59 g/m*3 18.2 C 1.6 km/h
295 26-06-2020 00:30:00 18 C 12.59 g/m*3 18 C 0 km/h
296 26-06-2020 00:35:00 17.9 C 12.52 g/m*3 17.9 C 0 km/h
297 26-06-2020 00:40:00 17.7 C 12.37 g/m*3 17.7 C 0 km/h
298 26-06-2020 00:45:00 17.6 C 12.3 g/m*3 17.6 C 0 km/h
299 26-06-2020 00:50:00 17.4 C 12.3 g/m*3 17.4 C 0 km/h
300 26-06-2020 00:55:00 17.3 C 12.23 g/m*3 17.3 C 0 km/h
Sensor: Nr:Datum:Temp:Abs-Feuchte:Windchill:Wind:
Aussen-T/F 301 26-06-2020 01:00:00 17.2 C 12.15 g/m*3 17.2 C 0 km/h
302 26-06-2020 01:05:00 17.1 C 12.08 g/m*3 17.1 C 0 km/h
303 26-06-2020 01:10:00 16.9 C 12.08 g/m*3 16.9 C 0 km/h
304 26-06-2020 01:15:00 16.8 C 12.01 g/m*3 16.8 C 0 km/h
305 26-06-2020 01:20:00 16.7 C 11.94 g/m*3 16.7 C 0 km/h
306 26-06-2020 01:25:00 16.6 C 12.01 g/m*3 16.6 C 0 km/h
307 26-06-2020 01:30:00 16.5 C 11.94 g/m*3 16.5 C 0 km/h
308 26-06-2020 01:35:00 16.3 C 11.79 g/m*3 16.3 C 0 km/h
309 26-06-2020 01:40:00 16.3 C 11.93 g/m*3 16.3 C 0 km/h
310 26-06-2020 01:45:00 16.2 C 11.86 g/m*3 16.2 C 0 km/h
311 26-06-2020 01:50:00 16.1 C 11.79 g/m*3 16.1 C 0 km/h
312 26-06-2020 01:55:00 16.1 C 11.93 g/m*3 16.1 C 1.6 km/h
313 26-06-2020 02:00:00 16 C 11.85 g/m*3 16 C 1.6 km/h
314 26-06-2020 02:05:00 15.9 C 11.78 g/m*3 15.9 C 0 km/h
315 26-06-2020 02:10:00 15.9 C 11.78 g/m*3 15.9 C 0 km/h
316 26-06-2020 02:15:00 15.8 C 11.71 g/m*3 15.8 C 0 km/h
317 26-06-2020 02:20:00 15.8 C 11.71 g/m*3 15.8 C 0 km/h
318 26-06-2020 02:25:00 15.7 C 11.77 g/m*3 15.7 C 0 km/h
319 26-06-2020 02:30:00 15.7 C 11.77 g/m*3 15.7 C 0 km/h
320 26-06-2020 02:35:00 15.7 C 11.77 g/m*3 15.7 C 0 km/h
321 26-06-2020 02:40:00 15.6 C 11.7 g/m*3 15.6 C 0 km/h
322 26-06-2020 02:45:00 15.6 C 11.7 g/m*3 15.6 C 0 km/h
323 26-06-2020 02:50:00 15.6 C 11.7 g/m*3 15.6 C 0 km/h
324 26-06-2020 02:55:00 15.5 C 11.63 g/m*3 15.5 C 0 km/h
325 26-06-2020 03:00:00 15.4 C 11.56 g/m*3 15.4 C 0 km/h
Sensor: Nr:Datum:Temp:Abs-Feuchte:Windchill:Wind:
Aussen-T/F 326 26-06-2020 03:05:00 15.4 C 11.56 g/m*3 15.4 C 0 km/h
327 26-06-2020 03:10:00 15.3 C 11.49 g/m*3 15.3 C 1.6 km/h
328 26-06-2020 03:15:00 15.3 C 11.49 g/m*3 15.3 C 0 km/h
329 26-06-2020 03:20:00 15.2 C 11.55 g/m*3 15.2 C 1.6 km/h
330 26-06-2020 03:25:00 15.1 C 11.48 g/m*3 15.1 C 1.6 km/h
331 26-06-2020 03:30:00 15.1 C 11.48 g/m*3 15.1 C 0 km/h
332 26-06-2020 03:35:00 14.9 C 11.34 g/m*3 14.9 C 0 km/h
333 26-06-2020 03:40:00 14.8 C 11.27 g/m*3 14.8 C 0 km/h
334 26-06-2020 03:45:00 14.8 C 11.27 g/m*3 14.8 C 0 km/h
335 26-06-2020 03:50:00 14.7 C 11.21 g/m*3 14.7 C 0 km/h
336 26-06-2020 03:55:00 14.7 C 11.33 g/m*3 14.7 C 0 km/h
337 26-06-2020 04:00:00 14.7 C 11.33 g/m*3 14.7 C 0 km/h
338 26-06-2020 04:05:00 14.7 C 11.33 g/m*3 14.7 C 0 km/h
339 26-06-2020 04:10:00 14.7 C 11.33 g/m*3 14.7 C 1.6 km/h
340 26-06-2020 04:15:00 14.6 C 11.26 g/m*3 14.6 C 0 km/h
341 26-06-2020 04:20:00 14.5 C 11.19 g/m*3 14.5 C 0 km/h
342 26-06-2020 04:25:00 14.4 C 11.25 g/m*3 14.4 C 0 km/h
343 26-06-2020 04:30:00 14.4 C 11.13 g/m*3 14.4 C 0 km/h
344 26-06-2020 04:35:00 14.3 C 11.18 g/m*3 14.3 C 0 km/h
345 26-06-2020 04:40:00 14.3 C 11.18 g/m*3 14.3 C 0 km/h
346 26-06-2020 04:45:00 14.3 C 11.18 g/m*3 14.3 C 0 km/h
347 26-06-2020 04:50:00 14.2 C 11.11 g/m*3 14.2 C 0 km/h
348 26-06-2020 04:55:00 14.1 C 11.04 g/m*3 14.1 C 0 km/h
349 26-06-2020 05:00:00 14.1 C 11.04 g/m*3 14.1 C 0 km/h
350 26-06-2020 05:05:00 14.1 C 11.17 g/m*3 14.1 C 0 km/h
Sensor: Nr:Datum:Temp:Abs-Feuchte:Windchill:Wind:
Aussen-T/F 351 26-06-2020 05:10:00 14.1 C 11.04 g/m*3 14.1 C 0 km/h
352 26-06-2020 05:15:00 14 C 10.98 g/m*3 14 C 0 km/h
353 26-06-2020 05:20:00 13.9 C 10.91 g/m*3 13.9 C 0 km/h
354 26-06-2020 05:25:00 13.8 C 10.96 g/m*3 13.8 C 0 km/h
355 26-06-2020 05:30:00 13.8 C 10.96 g/m*3 13.8 C 0 km/h
356 26-06-2020 05:35:00 13.8 C 10.96 g/m*3 13.8 C 0 km/h
357 26-06-2020 05:40:00 13.8 C 10.96 g/m*3 13.8 C 0 km/h
358 26-06-2020 05:45:00 13.8 C 10.96 g/m*3 13.8 C 0 km/h
359 26-06-2020 05:50:00 13.7 C 10.89 g/m*3 13.7 C 0 km/h
360 26-06-2020 05:55:00 13.7 C 10.89 g/m*3 13.7 C 0 km/h
361 26-06-2020 06:00:00 13.7 C 10.89 g/m*3 13.7 C 0 km/h
362 26-06-2020 06:05:00 13.7 C 11.01 g/m*3 13.7 C 0 km/h
363 26-06-2020 06:10:00 13.7 C 11.01 g/m*3 13.7 C 0 km/h
364 26-06-2020 06:15:00 13.7 C 11.01 g/m*3 13.7 C 0 km/h
365 26-06-2020 06:20:00 13.7 C 11.01 g/m*3 13.7 C 0 km/h
366 26-06-2020 06:25:00 13.8 C 11.08 g/m*3 13.8 C 0 km/h
367 26-06-2020 06:30:00 13.8 C 11.08 g/m*3 13.8 C 1.6 km/h
368 26-06-2020 06:35:00 13.8 C 11.08 g/m*3 13.8 C 0 km/h
369 26-06-2020 06:40:00 13.9 C 11.15 g/m*3 13.9 C 0 km/h
370 26-06-2020 06:45:00 13.9 C 11.15 g/m*3 13.9 C 1.6 km/h
371 26-06-2020 06:50:00 14 C 11.22 g/m*3 14 C 0 km/h
372 26-06-2020 06:55:00 14.1 C 11.41 g/m*3 14.1 C 0 km/h
373 26-06-2020 07:00:00 14.2 C 11.48 g/m*3 14.2 C 0 km/h
374 26-06-2020 07:05:00 14.2 C 11.48 g/m*3 14.2 C 1.6 km/h
375 26-06-2020 07:10:00 14.3 C 11.55 g/m*3 14.3 C 1.6 km/h
Sensor: Nr:Datum:Temp:Abs-Feuchte:Windchill:Wind:
Aussen-T/F 376 26-06-2020 07:15:00 14.4 C 11.62 g/m*3 14.4 C 0 km/h
377 26-06-2020 07:20:00 14.4 C 11.62 g/m*3 14.4 C 0 km/h
378 26-06-2020 07:25:00 14.6 C 11.76 g/m*3 14.6 C 0 km/h
379 26-06-2020 07:30:00 14.6 C 11.76 g/m*3 14.6 C 0 km/h
380 26-06-2020 07:35:00 14.7 C 11.83 g/m*3 14.7 C 0 km/h
381 26-06-2020 07:40:00 14.7 C 11.83 g/m*3 14.7 C 0 km/h
382 26-06-2020 07:45:00 14.8 C 11.91 g/m*3 14.8 C 0 km/h
383 26-06-2020 07:50:00 14.9 C 11.98 g/m*3 14.9 C 0 km/h
384 26-06-2020 07:55:00 15 C 12.05 g/m*3 15 C 1.6 km/h
385 26-06-2020 08:00:00 15.1 C 12.13 g/m*3 15.1 C 1.6 km/h
386 26-06-2020 08:05:00 15.2 C 12.2 g/m*3 15.2 C 0 km/h
387 26-06-2020 08:10:00 15.3 C 12.28 g/m*3 15.3 C 0 km/h
388 26-06-2020 08:15:00 15.4 C 12.35 g/m*3 15.4 C 3.2 km/h
389 26-06-2020 08:20:00 15.6 C 12.5 g/m*3 15.6 C 4.8 km/h
390 26-06-2020 08:25:00 15.7 C 12.58 g/m*3 15.7 C 1.6 km/h
391 26-06-2020 08:30:00 15.9 C 12.59 g/m*3 15.9 C 1.6 km/h
392 26-06-2020 08:35:00 16 C 12.67 g/m*3 16 C 0 km/h
393 26-06-2020 08:40:00 16.2 C 12.82 g/m*3 16.2 C 0 km/h
394 26-06-2020 08:45:00 16.3 C 12.76 g/m*3 16.3 C 0 km/h
395 26-06-2020 08:50:00 16.5 C 12.92 g/m*3 16.5 C 0 km/h
396 26-06-2020 08:55:00 16.7 C 12.93 g/m*3 16.7 C 0 km/h
397 26-06-2020 09:00:00 16.8 C 13.01 g/m*3 16.8 C 0 km/h
398 26-06-2020 09:05:00 17 C 13.02 g/m*3 17 C 0 km/h
399 26-06-2020 09:10:00 17.2 C 13.18 g/m*3 17.2 C 0 km/h
400 26-06-2020 09:15:00 17.3 C 13.11 g/m*3 17.3 C 0 km/h
Sensor: Nr:Datum:Temp:Abs-Feuchte:Windchill:Wind:
Aussen-T/F 401 26-06-2020 09:20:00 17.6 C 13.2 g/m*3 17.6 C 0 km/h
402 26-06-2020 09:25:00 18 C 13.06 g/m*3 18 C 8.1 km/h
403 26-06-2020 09:30:00 18.7 C 13.45 g/m*3 18.7 C 3.2 km/h
404 26-06-2020 09:35:00 18.9 C 13.45 g/m*3 18.9 C 1.6 km/h
405 26-06-2020 09:40:00 19.1 C 13.61 g/m*3 19.1 C 1.6 km/h
406 26-06-2020 09:45:00 19.2 C 13.52 g/m*3 19.2 C 4.8 km/h
407 26-06-2020 09:50:00 19.5 C 13.26 g/m*3 19.5 C 12.9 km/h
408 26-06-2020 09:55:00 20.2 C 13.11 g/m*3 20.2 C 12.9 km/h
409 26-06-2020 10:00:00 20.8 C 13.4 g/m*3 20.8 C 8.1 km/h
410 26-06-2020 10:05:00 21.7 C 13.93 g/m*3 21.7 C 9.7 km/h
411 26-06-2020 10:10:00 22.1 C 13.47 g/m*3 22.1 C 4.8 km/h
412 26-06-2020 10:15:00 22.4 C 13.9 g/m*3 22.4 C 4.8 km/h
413 26-06-2020 10:20:00 22.7 C 13.54 g/m*3 22.7 C 4.8 km/h
414 26-06-2020 10:25:00 23.1 C 14.26 g/m*3 23.1 C 4.8 km/h
415 26-06-2020 10:30:00 23.4 C 13.67 g/m*3 23.4 C 8.1 km/h
416 26-06-2020 10:35:00 23.9 C 13.63 g/m*3 23.9 C 9.7 km/h
417 26-06-2020 10:40:00 24.3 C 13.06 g/m*3 24.3 C 9.7 km/h
418 26-06-2020 10:45:00 24.6 C 13.05 g/m*3 24.6 C 4.8 km/h
419 26-06-2020 10:50:00 24.8 C 12.97 g/m*3 24.8 C 4.8 km/h
420 26-06-2020 10:55:00 25.1 C 13.2 g/m*3 25.1 C 8.1 km/h
421 26-06-2020 11:00:00 25.3 C 12.88 g/m*3 25.3 C 6.4 km/h
422 26-06-2020 11:05:00 25.4 C 12.48 g/m*3 25.4 C 6.4 km/h
423 26-06-2020 11:10:00 25.6 C 12.62 g/m*3 25.6 C 11.3 km/h
424 26-06-2020 11:15:00 25.7 C 12.69 g/m*3 25.7 C 8.1 km/h
425 26-06-2020 11:20:00 25.9 C 12.83 g/m*3 25.9 C 9.7 km/h
Sensor: Nr:Datum:Temp:Abs-Feuchte:Windchill:Wind:
Aussen-T/F 426 26-06-2020 11:25:00 26.1 C 12.49 g/m*3 26.1 C 8.1 km/h
427 26-06-2020 11:30:00 26.2 C 12.06 g/m*3 26.2 C 11.3 km/h
428 26-06-2020 11:35:00 26.2 C 12.8 g/m*3 26.2 C 12.9 km/h
429 26-06-2020 11:40:00 26.2 C 12.56 g/m*3 26.2 C 8.1 km/h
430 26-06-2020 11:45:00 26.3 C 12.38 g/m*3 26.3 C 4.8 km/h
431 26-06-2020 11:50:00 26.4 C 12.2 g/m*3 26.4 C 8.1 km/h
432 26-06-2020 11:55:00 26.4 C 12.2 g/m*3 26.4 C 12.9 km/h
433 26-06-2020 12:00:00 26.4 C 11.95 g/m*3 26.4 C 12.9 km/h
434 26-06-2020 12:05:00 26.4 C 11.95 g/m*3 26.4 C 14.5 km/h
435 26-06-2020 12:10:00 26.4 C 12.2 g/m*3 26.4 C 8.1 km/h
436 26-06-2020 12:15:00 26.5 C 12.02 g/m*3 26.5 C 4.8 km/h
437 26-06-2020 12:20:00 26.6 C 11.83 g/m*3 26.6 C 4.8 km/h
438 26-06-2020 12:25:00 26.7 C 11.9 g/m*3 26.7 C 8.1 km/h
439 26-06-2020 12:30:00 26.8 C 11.71 g/m*3 26.8 C 12.9 km/h
440 26-06-2020 12:35:00 26.8 C 12.22 g/m*3 26.8 C 8.1 km/h
441 26-06-2020 12:40:00 26.8 C 12.22 g/m*3 26.8 C 11.3 km/h
442 26-06-2020 12:45:00 26.8 C 11.96 g/m*3 26.8 C 6.4 km/h
443 26-06-2020 12:50:00 26.8 C 11.96 g/m*3 26.8 C 6.4 km/h
444 26-06-2020 12:55:00 26.8 C 11.71 g/m*3 26.8 C 4.8 km/h
445 26-06-2020 13:00:00 26.9 C 11.77 g/m*3 26.9 C 9.7 km/h
446 26-06-2020 13:05:00 27 C 12.35 g/m*3 27 C 12.9 km/h
447 26-06-2020 13:10:00 26.9 C 12.03 g/m*3 26.9 C 9.7 km/h
448 26-06-2020 13:15:00 27 C 12.35 g/m*3 27 C 9.7 km/h
449 26-06-2020 13:20:00 27.1 C 12.42 g/m*3 27.1 C 16.1 km/h
450 26-06-2020 13:25:00 27.2 C 12.49 g/m*3 27.2 C 16.1 km/h
Sensor: Nr:Datum:Temp:Abs-Feuchte:Windchill:Wind:
Aussen-T/F 451 26-06-2020 13:30:00 27.2 C 12.23 g/m*3 27.2 C 11.3 km/h
452 26-06-2020 13:35:00 27.3 C 12.3 g/m*3 27.3 C 12.9 km/h
453 26-06-2020 13:40:00 27.6 C 12.5 g/m*3 27.6 C 11.3 km/h
454 26-06-2020 13:45:00 27.6 C 13.04 g/m*3 27.6 C 9.7 km/h
455 26-06-2020 13:50:00 27.8 C 13.18 g/m*3 27.8 C 4.8 km/h
456 26-06-2020 13:55:00 27.8 C 12.37 g/m*3 27.8 C 8.1 km/h
457 26-06-2020 14:00:00 27.8 C 12.64 g/m*3 27.8 C 9.7 km/h
458 26-06-2020 14:05:00 27.8 C 12.37 g/m*3 27.8 C 8.1 km/h
459 26-06-2020 14:10:00 27.9 C 12.71 g/m*3 27.9 C 8.1 km/h
460 26-06-2020 14:15:00 28 C 12.78 g/m*3 28 C 9.7 km/h
461 26-06-2020 14:20:00 28.2 C 13.2 g/m*3 28.2 C 16.1 km/h
462 26-06-2020 14:25:00 28.4 C 12.79 g/m*3 28.4 C 11.3 km/h
463 26-06-2020 14:30:00 28.6 C 12.65 g/m*3 28.6 C 6.4 km/h
464 26-06-2020 14:35:00 28.7 C 13.28 g/m*3 28.7 C 9.7 km/h
465 26-06-2020 14:40:00 28.8 C 12.79 g/m*3 28.8 C 9.7 km/h
466 26-06-2020 14:45:00 28.9 C 12.57 g/m*3 28.9 C 9.7 km/h
467 26-06-2020 14:50:00 29.1 C 13.28 g/m*3 29.1 C 9.7 km/h
468 26-06-2020 14:55:00 29.4 C 13.21 g/m*3 29.4 C 11.3 km/h
469 26-06-2020 15:00:00 29.6 C 12.76 g/m*3 29.6 C 8.1 km/h
470 26-06-2020 15:05:00 29.7 C 12.83 g/m*3 29.7 C 9.7 km/h
471 26-06-2020 15:10:00 29.7 C 12.53 g/m*3 29.7 C 9.7 km/h
472 26-06-2020 15:15:00 29.6 C 12.46 g/m*3 29.6 C 9.7 km/h
473 26-06-2020 15:20:00 29.6 C 12.76 g/m*3 29.6 C 11.3 km/h
474 26-06-2020 15:25:00 29.8 C 12.9 g/m*3 29.8 C 4.8 km/h
475 26-06-2020 15:30:00 30.2 C 13.79 g/m*3 30.2 C 12.9 km/h
Sensor: Nr:Datum:Temp:Abs-Feuchte:Windchill:Wind:
Aussen-T/F 476 26-06-2020 15:35:00 30.3 C 12.94 g/m*3 30.3 C 8.1 km/h
477 26-06-2020 15:40:00 30.6 C 12.84 g/m*3 30.6 C 12.9 km/h
478 26-06-2020 15:45:00 30.8 C 12.66 g/m*3 30.8 C 11.3 km/h
479 26-06-2020 15:50:00 30.9 C 13.69 g/m*3 30.9 C 4.8 km/h
480 26-06-2020 15:55:00 31.1 C 13.19 g/m*3 31.1 C 8.1 km/h
481 26-06-2020 16:00:00 31.2 C 12.94 g/m*3 31.2 C 6.4 km/h
482 26-06-2020 16:05:00 31.5 C 13.48 g/m*3 31.5 C 6.4 km/h
483 26-06-2020 16:10:00 31.8 C 13.36 g/m*3 31.8 C 4.8 km/h
484 26-06-2020 16:15:00 31.8 C 12.69 g/m*3 31.8 C 11.3 km/h
485 26-06-2020 16:20:00 31.5 C 13.15 g/m*3 31.5 C 12.9 km/h
486 26-06-2020 16:25:00 31.6 C 12.89 g/m*3 31.6 C 9.7 km/h
487 26-06-2020 16:30:00 31.6 C 12.89 g/m*3 31.6 C 9.7 km/h
488 26-06-2020 16:35:00 31.7 C 13.95 g/m*3 31.7 C 8.1 km/h
489 26-06-2020 16:40:00 32.1 C 12.56 g/m*3 32.1 C 14.5 km/h
490 26-06-2020 16:45:00 32 C 12.49 g/m*3 32 C 12.9 km/h
491 26-06-2020 16:50:00 31.9 C 12.76 g/m*3 31.9 C 22.5 km/h
492 26-06-2020 16:55:00 31.8 C 13.36 g/m*3 31.8 C 22.5 km/h
493 26-06-2020 17:00:00 31.9 C 13.43 g/m*3 31.9 C 8.1 km/h
494 26-06-2020 17:05:00 31.9 C 13.43 g/m*3 31.9 C 3.2 km/h
495 26-06-2020 17:10:00 31.8 C 13.03 g/m*3 31.8 C 4.8 km/h
496 26-06-2020 17:15:00 31.7 C 12.96 g/m*3 31.7 C 3.2 km/h
497 26-06-2020 17:20:00 31.7 C 12.62 g/m*3 31.7 C 3.2 km/h
498 26-06-2020 17:25:00 31.6 C 12.56 g/m*3 31.6 C 11.3 km/h
499 26-06-2020 17:30:00 31.2 C 12.29 g/m*3 31.2 C 9.7 km/h
500 26-06-2020 17:35:00 30.9 C 12.41 g/m*3 30.9 C 8.1 km/h
Sensor: Nr:Datum:Temp:Abs-Feuchte:Windchill:Wind:
Aussen-T/F 501 26-06-2020 17:40:00 30.8 C 14.25 g/m*3 30.8 C 1.6 km/h
502 26-06-2020 17:45:00 30.7 C 15.75 g/m*3 30.7 C 0 km/h
503 26-06-2020 17:50:00 30.4 C 15.49 g/m*3 30.4 C 4.8 km/h
504 26-06-2020 17:55:00 30.2 C 15.63 g/m*3 30.2 C 3.2 km/h
505 26-06-2020 18:00:00 29.8 C 15.3 g/m*3 29.8 C 1.6 km/h
506 26-06-2020 18:05:00 29.3 C 15.18 g/m*3 29.3 C 0 km/h
507 26-06-2020 18:10:00 29 C 14.94 g/m*3 29 C 1.6 km/h
508 26-06-2020 18:15:00 28.7 C 15.26 g/m*3 28.7 C 0 km/h
509 26-06-2020 18:20:00 28.4 C 15.29 g/m*3 28.4 C 0 km/h
510 26-06-2020 18:25:00 28.1 C 15.04 g/m*3 28.1 C 0 km/h
511 26-06-2020 18:30:00 27.9 C 15.69 g/m*3 27.9 C 0 km/h
512 26-06-2020 18:35:00 27.6 C 14.9 g/m*3 27.6 C 9.7 km/h
513 26-06-2020 18:40:00 27.3 C 14.39 g/m*3 27.3 C 8.1 km/h
514 26-06-2020 18:45:00 27.1 C 14.49 g/m*3 27.1 C 9.7 km/h
515 26-06-2020 18:50:00 26.9 C 15.1 g/m*3 26.9 C 8.1 km/h
516 26-06-2020 18:55:00 26.7 C 15.44 g/m*3 26.7 C 8.1 km/h
517 26-06-2020 19:00:00 26.4 C 15.43 g/m*3 26.4 C 6.4 km/h
518 26-06-2020 19:05:00 26.1 C 15.42 g/m*3 26.1 C 8.1 km/h
519 26-06-2020 19:10:00 25.8 C 14.69 g/m*3 25.8 C 16.1 km/h
520 26-06-2020 19:15:00 25.7 C 14.36 g/m*3 25.7 C 19.3 km/h
521 26-06-2020 19:20:00 25.6 C 14.05 g/m*3 25.6 C 17.7 km/h
522 26-06-2020 19:25:00 25.6 C 13.81 g/m*3 25.6 C 20.9 km/h
523 26-06-2020 19:30:00 25.3 C 13.58 g/m*3 25.3 C 27.4 km/h
524 26-06-2020 19:35:00 25.1 C 13.66 g/m*3 25.1 C 19.3 km/h
525 26-06-2020 19:40:00 24.9 C 13.96 g/m*3 24.9 C 14.5 km/h
Sensor: Nr:Datum:Temp:Abs-Feuchte:Windchill:Wind:
Aussen-T/F 526 26-06-2020 19:45:00 24.5 C 14.1 g/m*3 24.5 C 12.9 km/h
527 26-06-2020 19:50:00 24.1 C 14 g/m*3 24.1 C 14.5 km/h
528 26-06-2020 19:55:00 23.9 C 14.06 g/m*3 23.9 C 6.4 km/h
529 26-06-2020 20:00:00 23.8 C 14.2 g/m*3 23.8 C 3.2 km/h
530 26-06-2020 20:05:00 23.7 C 14.12 g/m*3 23.7 C 3.2 km/h
531 26-06-2020 20:10:00 23.6 C 14.25 g/m*3 23.6 C 4.8 km/h
532 26-06-2020 20:15:00 23.5 C 14.17 g/m*3 23.5 C 8.1 km/h
533 26-06-2020 20:20:00 23.4 C 14.3 g/m*3 23.4 C 4.8 km/h
534 26-06-2020 20:25:00 23.3 C 14.22 g/m*3 23.3 C 3.2 km/h
535 26-06-2020 20:30:00 23.2 C 14.34 g/m*3 23.2 C 4.8 km/h
536 26-06-2020 20:35:00 23.2 C 14.97 g/m*3 23.2 C 0 km/h
537 26-06-2020 20:40:00 23.1 C 15.3 g/m*3 23.1 C 1.6 km/h
538 26-06-2020 20:45:00 22.8 C 15.04 g/m*3 22.8 C 6.4 km/h
539 26-06-2020 20:50:00 22.6 C 14.87 g/m*3 22.6 C 6.4 km/h
540 26-06-2020 20:55:00 22.3 C 14.81 g/m*3 22.3 C 8.1 km/h
541 26-06-2020 21:00:00 22.1 C 14.84 g/m*3 22.1 C 6.4 km/h
542 26-06-2020 21:05:00 22 C 14.94 g/m*3 22 C 3.2 km/h
543 26-06-2020 21:10:00 21.8 C 14.77 g/m*3 21.8 C 3.2 km/h
544 26-06-2020 21:15:00 21.7 C 14.69 g/m*3 21.7 C 4.8 km/h
545 26-06-2020 21:20:00 21.6 C 14.79 g/m*3 21.6 C 0 km/h
546 26-06-2020 21:25:00 21.6 C 14.79 g/m*3 21.6 C 3.2 km/h
547 26-06-2020 21:30:00 21.4 C 14.62 g/m*3 21.4 C 0 km/h
548 26-06-2020 21:35:00 21.3 C 14.73 g/m*3 21.3 C 0 km/h
549 26-06-2020 21:40:00 21.3 C 14.73 g/m*3 21.3 C 11.3 km/h
550 26-06-2020 21:45:00 21.3 C 14.73 g/m*3 21.3 C 8.1 km/h
Sensor: Nr:Datum:Temp:Abs-Feuchte:Windchill:Wind:
Aussen-T/F 551 26-06-2020 21:50:00 21.3 C 14.91 g/m*3 21.3 C 8.1 km/h
552 26-06-2020 21:55:00 21.3 C 14.91 g/m*3 21.3 C 6.4 km/h
553 26-06-2020 22:00:00 21.3 C 14.91 g/m*3 21.3 C 3.2 km/h
554 26-06-2020 22:05:00 21.2 C 14.83 g/m*3 21.2 C 8.1 km/h
555 26-06-2020 22:10:00 21.1 C 14.74 g/m*3 21.1 C 4.8 km/h
556 26-06-2020 22:15:00 21.1 C 14.74 g/m*3 21.1 C 4.8 km/h
557 26-06-2020 22:20:00 21.1 C 14.74 g/m*3 21.1 C 9.7 km/h
558 26-06-2020 22:25:00 21.1 C 14.92 g/m*3 21.1 C 3.2 km/h
559 26-06-2020 22:30:00 21 C 14.84 g/m*3 21 C 1.6 km/h
560 26-06-2020 22:35:00 21 C 14.84 g/m*3 21 C 0 km/h
561 26-06-2020 22:40:00 20.9 C 14.75 g/m*3 20.9 C 0 km/h
562 26-06-2020 22:45:00 20.8 C 14.85 g/m*3 20.8 C 0 km/h
563 26-06-2020 22:50:00 20.8 C 14.85 g/m*3 20.8 C 0 km/h
564 26-06-2020 22:55:00 20.7 C 14.76 g/m*3 20.7 C 0 km/h
565 26-06-2020 23:00:00 20.5 C 14.77 g/m*3 20.5 C 0 km/h
566 26-06-2020 23:05:00 20.4 C 14.68 g/m*3 20.4 C 0 km/h
567 26-06-2020 23:10:00 20.3 C 14.6 g/m*3 20.3 C 1.6 km/h
568 26-06-2020 23:15:00 20.2 C 14.69 g/m*3 20.2 C 1.6 km/h
569 26-06-2020 23:20:00 20.2 C 14.69 g/m*3 20.2 C 1.6 km/h
570 26-06-2020 23:25:00 20.1 C 14.6 g/m*3 20.1 C 1.6 km/h
571 26-06-2020 23:30:00 20.1 C 14.6 g/m*3 20.1 C 0 km/h
572 26-06-2020 23:35:00 20.1 C 14.43 g/m*3 20.1 C 3.2 km/h
573 26-06-2020 23:40:00 20.1 C 14.43 g/m*3 20.1 C 3.2 km/h
574 26-06-2020 23:45:00 20.2 C 14.51 g/m*3 20.2 C 3.2 km/h
575 26-06-2020 23:50:00 20.2 C 14.34 g/m*3 20.2 C 3.2 km/h
Sensor: Nr:Datum:Temp:Abs-Feuchte:Windchill:Wind:
Aussen-T/F 576 26-06-2020 23:55:00 20.2 C 14.34 g/m*3 20.2 C 4.8 km/h
577 27-06-2020 00:00:00 20.3 C 14.25 g/m*3 20.3 C 3.2 km/h
578 27-06-2020 00:05:00 20.4 C 14.33 g/m*3 20.4 C 9.7 km/h
579 27-06-2020 00:10:00 20.4 C 14.33 g/m*3 20.4 C 9.7 km/h
580 27-06-2020 00:15:00 20.4 C 14.33 g/m*3 20.4 C 4.8 km/h
581 27-06-2020 00:20:00 20.4 C 14.15 g/m*3 20.4 C 9.7 km/h
582 27-06-2020 00:25:00 20.5 C 14.23 g/m*3 20.5 C 9.7 km/h
583 27-06-2020 00:30:00 20.5 C 14.23 g/m*3 20.5 C 8.1 km/h
584 27-06-2020 00:35:00 20.4 C 14.15 g/m*3 20.4 C 1.6 km/h
585 27-06-2020 00:40:00 20.4 C 14.33 g/m*3 20.4 C 9.7 km/h
586 27-06-2020 00:45:00 20.3 C 14.42 g/m*3 20.3 C 4.8 km/h
587 27-06-2020 00:50:00 20.2 C 14.34 g/m*3 20.2 C 8.1 km/h
588 27-06-2020 00:55:00 20.1 C 14.25 g/m*3 20.1 C 3.2 km/h
589 27-06-2020 01:00:00 20 C 14.17 g/m*3 20 C 1.6 km/h
590 27-06-2020 01:05:00 19.9 C 14.09 g/m*3 19.9 C 0 km/h
591 27-06-2020 01:10:00 19.8 C 14.01 g/m*3 19.8 C 3.2 km/h
592 27-06-2020 01:15:00 19.8 C 14.18 g/m*3 19.8 C 0 km/h
593 27-06-2020 01:20:00 19.7 C 14.09 g/m*3 19.7 C 0 km/h
594 27-06-2020 01:25:00 19.5 C 13.93 g/m*3 19.5 C 0 km/h
595 27-06-2020 01:30:00 19.3 C 13.77 g/m*3 19.3 C 0 km/h
596 27-06-2020 01:35:00 19.2 C 13.85 g/m*3 19.2 C 0 km/h
597 27-06-2020 01:40:00 19 C 13.69 g/m*3 19 C 1.6 km/h
598 27-06-2020 01:45:00 18.9 C 13.77 g/m*3 18.9 C 0 km/h
599 27-06-2020 01:50:00 18.8 C 13.69 g/m*3 18.8 C 0 km/h
600 27-06-2020 01:55:00 18.8 C 13.85 g/m*3 18.8 C 0 km/h
Sensor: Nr:Datum:Temp:Abs-Feuchte:Windchill:Wind:
Aussen-T/F 601 27-06-2020 02:00:00 18.7 C 13.77 g/m*3 18.7 C 0 km/h
602 27-06-2020 02:05:00 18.6 C 13.69 g/m*3 18.6 C 0 km/h
603 27-06-2020 02:10:00 18.5 C 13.61 g/m*3 18.5 C 0 km/h
604 27-06-2020 02:15:00 18.4 C 13.53 g/m*3 18.4 C 1.6 km/h
605 27-06-2020 02:20:00 18.3 C 13.6 g/m*3 18.3 C 0 km/h
606 27-06-2020 02:25:00 18.2 C 13.52 g/m*3 18.2 C 0 km/h
607 27-06-2020 02:30:00 18.2 C 13.68 g/m*3 18.2 C 0 km/h
608 27-06-2020 02:35:00 18.2 C 13.68 g/m*3 18.2 C 0 km/h
609 27-06-2020 02:40:00 18.1 C 13.6 g/m*3 18.1 C 0 km/h
610 27-06-2020 02:45:00 18.1 C 13.6 g/m*3 18.1 C 0 km/h
611 27-06-2020 02:50:00 18.1 C 13.6 g/m*3 18.1 C 3.2 km/h
612 27-06-2020 02:55:00 18.1 C 13.75 g/m*3 18.1 C 0 km/h
613 27-06-2020 03:00:00 18.1 C 13.75 g/m*3 18.1 C 0 km/h
614 27-06-2020 03:05:00 18.2 C 13.83 g/m*3 18.2 C 0 km/h
615 27-06-2020 03:10:00 18.2 C 13.83 g/m*3 18.2 C 0 km/h
616 27-06-2020 03:15:00 18.2 C 13.99 g/m*3 18.2 C 0 km/h
617 27-06-2020 03:20:00 18.3 C 14.07 g/m*3 18.3 C 0 km/h
618 27-06-2020 03:25:00 18.3 C 13.92 g/m*3 18.3 C 0 km/h
619 27-06-2020 03:30:00 18.3 C 13.92 g/m*3 18.3 C 0 km/h
620 27-06-2020 03:35:00 18.3 C 13.92 g/m*3 18.3 C 0 km/h
621 27-06-2020 03:40:00 18.4 C 14 g/m*3 18.4 C 0 km/h
622 27-06-2020 03:45:00 18.4 C 14 g/m*3 18.4 C 1.6 km/h
623 27-06-2020 03:50:00 18.4 C 14.16 g/m*3 18.4 C 0 km/h
624 27-06-2020 03:55:00 18.4 C 14.16 g/m*3 18.4 C 0 km/h
625 27-06-2020 04:00:00 18.4 C 14 g/m*3 18.4 C 0 km/h
Sensor: Nr:Datum:Temp:Abs-Feuchte:Windchill:Wind:
Aussen-T/F 626 27-06-2020 04:05:00 18.4 C 14 g/m*3 18.4 C 0 km/h
627 27-06-2020 04:10:00 18.3 C 13.92 g/m*3 18.3 C 0 km/h
628 27-06-2020 04:15:00 18.3 C 13.92 g/m*3 18.3 C 0 km/h
629 27-06-2020 04:20:00 18.3 C 13.92 g/m*3 18.3 C 0 km/h
630 27-06-2020 04:25:00 18.2 C 13.83 g/m*3 18.2 C 0 km/h
631 27-06-2020 04:30:00 18.1 C 13.75 g/m*3 18.1 C 0 km/h
632 27-06-2020 04:35:00 18.1 C 13.75 g/m*3 18.1 C 0 km/h
633 27-06-2020 04:40:00 18 C 13.82 g/m*3 18 C 0 km/h
634 27-06-2020 04:45:00 17.9 C 13.74 g/m*3 17.9 C 0 km/h
635 27-06-2020 04:50:00 17.8 C 13.66 g/m*3 17.8 C 3.2 km/h
636 27-06-2020 04:55:00 17.8 C 13.66 g/m*3 17.8 C 1.6 km/h
637 27-06-2020 05:00:00 17.7 C 13.58 g/m*3 17.7 C 0 km/h
638 27-06-2020 05:05:00 17.6 C 13.5 g/m*3 17.6 C 0 km/h
639 27-06-2020 05:10:00 17.5 C 13.57 g/m*3 17.5 C 0 km/h
640 27-06-2020 05:15:00 17.4 C 13.49 g/m*3 17.4 C 0 km/h
641 27-06-2020 05:20:00 17.4 C 13.49 g/m*3 17.4 C 0 km/h
642 27-06-2020 05:25:00 17.3 C 13.41 g/m*3 17.3 C 0 km/h
643 27-06-2020 05:30:00 17.3 C 13.55 g/m*3 17.3 C 0 km/h
644 27-06-2020 05:35:00 17.4 C 13.63 g/m*3 17.4 C 0 km/h
645 27-06-2020 05:40:00 17.4 C 13.63 g/m*3 17.4 C 0 km/h
646 27-06-2020 05:45:00 17.4 C 13.63 g/m*3 17.4 C 1.6 km/h
647 27-06-2020 05:50:00 17.6 C 13.95 g/m*3 17.6 C 1.6 km/h
648 27-06-2020 05:55:00 17.6 C 13.95 g/m*3 17.6 C 3.2 km/h
649 27-06-2020 06:00:00 17.7 C 14.03 g/m*3 17.7 C 0 km/h
650 27-06-2020 06:05:00 17.7 C 14.03 g/m*3 17.7 C 0 km/h
Sensor: Nr:Datum:Temp:Abs-Feuchte:Windchill:Wind:
Aussen-T/F 651 27-06-2020 06:10:00 17.8 C 14.12 g/m*3 17.8 C 4.8 km/h
652 27-06-2020 06:15:00 17.9 C 14.2 g/m*3 17.9 C 3.2 km/h
653 27-06-2020 06:20:00 18.1 C 14.21 g/m*3 18.1 C 3.2 km/h
654 27-06-2020 06:25:00 18.2 C 14.3 g/m*3 18.2 C 1.6 km/h
655 27-06-2020 06:30:00 18.3 C 14.38 g/m*3 18.3 C 1.6 km/h
656 27-06-2020 06:35:00 18.4 C 14.31 g/m*3 18.4 C 3.2 km/h
657 27-06-2020 06:40:00 18.6 C 14.48 g/m*3 18.6 C 3.2 km/h
658 27-06-2020 06:45:00 18.7 C 14.57 g/m*3 18.7 C 3.2 km/h
659 27-06-2020 06:50:00 18.7 C 14.57 g/m*3 18.7 C 0 km/h
660 27-06-2020 06:55:00 18.8 C 14.49 g/m*3 18.8 C 3.2 km/h
661 27-06-2020 07:00:00 18.9 C 14.58 g/m*3 18.9 C 1.6 km/h
662 27-06-2020 07:05:00 19 C 14.67 g/m*3 19 C 0 km/h
663 27-06-2020 07:10:00 19.1 C 14.75 g/m*3 19.1 C 0 km/h
664 27-06-2020 07:15:00 19.2 C 14.68 g/m*3 19.2 C 0 km/h
665 27-06-2020 07:20:00 19.3 C 14.93 g/m*3 19.3 C 0 km/h
666 27-06-2020 07:25:00 19.6 C 15.02 g/m*3 19.6 C 8.1 km/h
667 27-06-2020 07:30:00 19.8 C 15.03 g/m*3 19.8 C 9.7 km/h
668 27-06-2020 07:35:00 20 C 15.04 g/m*3 20 C 6.4 km/h
669 27-06-2020 07:40:00 20.2 C 15.04 g/m*3 20.2 C 11.3 km/h
670 27-06-2020 07:45:00 20.3 C 15.13 g/m*3 20.3 C 9.7 km/h
671 27-06-2020 07:50:00 20.4 C 14.86 g/m*3 20.4 C 16.1 km/h
672 27-06-2020 07:55:00 20.4 C 14.86 g/m*3 20.4 C 14.5 km/h
673 27-06-2020 08:00:00 20.5 C 14.77 g/m*3 20.5 C 17.7 km/h
674 27-06-2020 08:05:00 20.5 C 14.77 g/m*3 20.5 C 17.7 km/h
675 27-06-2020 08:10:00 20.6 C 14.86 g/m*3 20.6 C 12.9 km/h
Sensor: Nr:Datum:Temp:Abs-Feuchte:Windchill:Wind:
Aussen-T/F 676 27-06-2020 08:15:00 20.6 C 14.68 g/m*3 20.6 C 12.9 km/h
677 27-06-2020 08:20:00 20.7 C 14.94 g/m*3 20.7 C 9.7 km/h
678 27-06-2020 08:25:00 20.8 C 14.85 g/m*3 20.8 C 17.7 km/h
679 27-06-2020 08:30:00 21.1 C 14.92 g/m*3 21.1 C 16.1 km/h
680 27-06-2020 08:35:00 21.3 C 14.91 g/m*3 21.3 C 14.5 km/h
681 27-06-2020 08:40:00 21.4 C 15 g/m*3 21.4 C 12.9 km/h
682 27-06-2020 08:45:00 21.5 C 14.9 g/m*3 21.5 C 9.7 km/h
683 27-06-2020 08:50:00 21.5 C 14.71 g/m*3 21.5 C 14.5 km/h
684 27-06-2020 08:55:00 21.5 C 14.71 g/m*3 21.5 C 9.7 km/h
685 27-06-2020 09:00:00 21.4 C 14.62 g/m*3 21.4 C 0 km/h
686 27-06-2020 09:05:00 21.4 C 14.81 g/m*3 21.4 C 4.8 km/h
687 27-06-2020 09:10:00 21.4 C 14.62 g/m*3 21.4 C 4.8 km/h
688 27-06-2020 09:15:00 21.4 C 14.81 g/m*3 21.4 C 3.2 km/h
689 27-06-2020 09:20:00 21.5 C 15.09 g/m*3 21.5 C 3.2 km/h
690 27-06-2020 09:25:00 21.6 C 14.98 g/m*3 21.6 C 6.4 km/h
691 27-06-2020 09:30:00 21.7 C 14.88 g/m*3 21.7 C 4.8 km/h
692 27-06-2020 09:35:00 21.8 C 14.77 g/m*3 21.8 C 4.8 km/h
693 27-06-2020 09:40:00 21.9 C 14.67 g/m*3 21.9 C 1.6 km/h
694 27-06-2020 09:45:00 22 C 14.75 g/m*3 22 C 4.8 km/h
695 27-06-2020 09:50:00 22.1 C 14.64 g/m*3 22.1 C 8.1 km/h
696 27-06-2020 09:55:00 22.2 C 14.72 g/m*3 22.2 C 8.1 km/h
697 27-06-2020 10:00:00 22.4 C 14.89 g/m*3 22.4 C 9.7 km/h
698 27-06-2020 10:05:00 22.6 C 14.87 g/m*3 22.6 C 9.7 km/h
699 27-06-2020 10:10:00 22.7 C 14.95 g/m*3 22.7 C 1.6 km/h
700 27-06-2020 10:15:00 22.8 C 15.24 g/m*3 22.8 C 3.2 km/h
Sensor: Nr:Datum:Temp:Abs-Feuchte:Windchill:Wind:
Aussen-T/F 701 27-06-2020 10:20:00 22.9 C 14.51 g/m*3 22.9 C 6.4 km/h
702 27-06-2020 10:25:00 22.9 C 14.71 g/m*3 22.9 C 9.7 km/h
703 27-06-2020 10:30:00 23 C 14.59 g/m*3 23 C 6.4 km/h
704 27-06-2020 10:35:00 23.1 C 14.68 g/m*3 23.1 C 12.9 km/h
705 27-06-2020 10:40:00 23.2 C 14.55 g/m*3 23.2 C 8.1 km/h
706 27-06-2020 10:45:00 23.3 C 14.64 g/m*3 23.3 C 8.1 km/h
707 27-06-2020 10:50:00 23.5 C 14.8 g/m*3 23.5 C 14.5 km/h
708 27-06-2020 10:55:00 23.6 C 14.46 g/m*3 23.6 C 11.3 km/h
709 27-06-2020 11:00:00 23.6 C 14.68 g/m*3 23.6 C 9.7 km/h
710 27-06-2020 11:05:00 23.6 C 14.68 g/m*3 23.6 C 11.3 km/h
711 27-06-2020 11:10:00 23.5 C 14.59 g/m*3 23.5 C 8.1 km/h
712 27-06-2020 11:15:00 23.4 C 14.72 g/m*3 23.4 C 3.2 km/h
713 27-06-2020 11:20:00 23.3 C 14.64 g/m*3 23.3 C 8.1 km/h
714 27-06-2020 11:25:00 23.1 C 14.68 g/m*3 23.1 C 6.4 km/h
715 27-06-2020 11:30:00 22.9 C 14.51 g/m*3 22.9 C 6.4 km/h
716 27-06-2020 11:35:00 22.9 C 14.51 g/m*3 22.9 C 8.1 km/h
717 27-06-2020 11:40:00 22.8 C 14.63 g/m*3 22.8 C 9.7 km/h
718 27-06-2020 11:45:00 22.7 C 14.55 g/m*3 22.7 C 9.7 km/h
719 27-06-2020 11:50:00 22.7 C 14.55 g/m*3 22.7 C 4.8 km/h
720 27-06-2020 11:55:00 22.6 C 14.66 g/m*3 22.6 C 8.1 km/h
721 27-06-2020 12:00:00 22.5 C 14.58 g/m*3 22.5 C 4.8 km/h
722 27-06-2020 12:05:00 22.4 C 14.7 g/m*3 22.4 C 11.3 km/h
723 27-06-2020 12:10:00 22.3 C 14.61 g/m*3 22.3 C 6.4 km/h
724 27-06-2020 12:15:00 22.2 C 14.72 g/m*3 22.2 C 3.2 km/h
725 27-06-2020 12:20:00 22.2 C 14.72 g/m*3 22.2 C 6.4 km/h
Sensor: Nr:Datum:Temp:Abs-Feuchte:Windchill:Wind:
Aussen-T/F 726 27-06-2020 12:25:00 22.3 C 15.01 g/m*3 22.3 C 4.8 km/h
727 27-06-2020 12:30:00 22.5 C 14.98 g/m*3 22.5 C 6.4 km/h
728 27-06-2020 12:35:00 22.7 C 15.36 g/m*3 22.7 C 4.8 km/h
729 27-06-2020 12:40:00 22.8 C 15.24 g/m*3 22.8 C 3.2 km/h
730 27-06-2020 12:45:00 22.9 C 15.33 g/m*3 22.9 C 4.8 km/h
731 27-06-2020 12:50:00 22.9 C 15.33 g/m*3 22.9 C 6.4 km/h
732 27-06-2020 12:55:00 23 C 15.42 g/m*3 23 C 8.1 km/h
733 27-06-2020 13:00:00 23 C 15.42 g/m*3 23 C 11.3 km/h
734 27-06-2020 13:05:00 23 C 15.62 g/m*3 23 C 6.4 km/h
735 27-06-2020 13:10:00 22.9 C 15.33 g/m*3 22.9 C 11.3 km/h
736 27-06-2020 13:15:00 22.9 C 15.33 g/m*3 22.9 C 3.2 km/h
737 27-06-2020 13:20:00 22.9 C 15.53 g/m*3 22.9 C 4.8 km/h
738 27-06-2020 13:25:00 22.9 C 15.33 g/m*3 22.9 C 4.8 km/h
739 27-06-2020 13:30:00 22.9 C 15.53 g/m*3 22.9 C 3.2 km/h
740 27-06-2020 13:35:00 23 C 15.42 g/m*3 23 C 4.8 km/h
741 27-06-2020 13:40:00 23.1 C 15.71 g/m*3 23.1 C 3.2 km/h
742 27-06-2020 13:45:00 23.2 C 15.8 g/m*3 23.2 C 0 km/h
743 27-06-2020 13:50:00 23.4 C 15.77 g/m*3 23.4 C 4.8 km/h
744 27-06-2020 13:55:00 23.7 C 15.83 g/m*3 23.7 C 11.3 km/h
745 27-06-2020 14:00:00 23.9 C 15.79 g/m*3 23.9 C 8.1 km/h
746 27-06-2020 14:05:00 24.2 C 15.62 g/m*3 24.2 C 14.5 km/h
747 27-06-2020 14:10:00 24.6 C 15.53 g/m*3 24.6 C 16.1 km/h
748 27-06-2020 14:15:00 24.7 C 15.62 g/m*3 24.7 C 12.9 km/h
749 27-06-2020 14:20:00 24.9 C 15.57 g/m*3 24.9 C 14.5 km/h
750 27-06-2020 14:25:00 25 C 15.19 g/m*3 25 C 12.9 km/h
Sensor: Nr:Datum:Temp:Abs-Feuchte:Windchill:Wind:
Aussen-T/F 751 27-06-2020 14:30:00 25.4 C 14.83 g/m*3 25.4 C 19.3 km/h
752 27-06-2020 14:35:00 25.8 C 14.93 g/m*3 25.8 C 19.3 km/h
753 27-06-2020 14:40:00 26.2 C 14.77 g/m*3 26.2 C 19.3 km/h
754 27-06-2020 14:45:00 26.4 C 14.69 g/m*3 26.4 C 14.5 km/h
755 27-06-2020 14:50:00 26.7 C 14.68 g/m*3 26.7 C 14.5 km/h
756 27-06-2020 14:55:00 26.8 C 14.51 g/m*3 26.8 C 24.1 km/h
757 27-06-2020 15:00:00 27.1 C 14.75 g/m*3 27.1 C 24.1 km/h
758 27-06-2020 15:05:00 27.3 C 14.65 g/m*3 27.3 C 22.5 km/h
759 27-06-2020 15:10:00 27.5 C 14.29 g/m*3 27.5 C 20.9 km/h
760 27-06-2020 15:15:00 27.7 C 14.44 g/m*3 27.7 C 14.5 km/h
761 27-06-2020 15:20:00 27.7 C 14.18 g/m*3 27.7 C 14.5 km/h
762 27-06-2020 15:25:00 27.6 C 14.1 g/m*3 27.6 C 24.1 km/h
763 27-06-2020 15:30:00 27.7 C 14.71 g/m*3 27.7 C 17.7 km/h
764 27-06-2020 15:35:00 28.2 C 14.3 g/m*3 28.2 C 17.7 km/h
765 27-06-2020 15:40:00 28.3 C 14.38 g/m*3 28.3 C 17.7 km/h
766 27-06-2020 15:45:00 28.4 C 14.18 g/m*3 28.4 C 19.3 km/h
767 27-06-2020 15:50:00 28.2 C 14.02 g/m*3 28.2 C 17.7 km/h
768 27-06-2020 15:55:00 28.3 C 14.1 g/m*3 28.3 C 19.3 km/h
769 27-06-2020 16:00:00 28.5 C 14.25 g/m*3 28.5 C 20.9 km/h
770 27-06-2020 16:05:00 28.6 C 14.61 g/m*3 28.6 C 16.1 km/h
771 27-06-2020 16:10:00 28.6 C 14.61 g/m*3 28.6 C 17.7 km/h
772 27-06-2020 16:15:00 28.5 C 14.53 g/m*3 28.5 C 16.1 km/h
773 27-06-2020 16:20:00 28.7 C 14.69 g/m*3 28.7 C 19.3 km/h
774 27-06-2020 16:25:00 28.9 C 14.57 g/m*3 28.9 C 17.7 km/h
775 27-06-2020 16:30:00 29.1 C 14.73 g/m*3 29.1 C 16.1 km/h
Sensor: Nr:Datum:Temp:Abs-Feuchte:Windchill:Wind:
Aussen-T/F 776 27-06-2020 16:35:00 29.1 C 14.73 g/m*3 29.1 C 17.7 km/h
777 27-06-2020 16:40:00 29.1 C 14.73 g/m*3 29.1 C 20.9 km/h
778 27-06-2020 16:45:00 28.9 C 14.57 g/m*3 28.9 C 17.7 km/h
779 27-06-2020 16:50:00 29.1 C 14.73 g/m*3 29.1 C 17.7 km/h
780 27-06-2020 16:55:00 29.4 C 14.68 g/m*3 29.4 C 17.7 km/h
781 27-06-2020 17:00:00 29.6 C 15.43 g/m*3 29.6 C 16.1 km/h
782 27-06-2020 17:05:00 29.8 C 14.4 g/m*3 29.8 C 20.9 km/h
783 27-06-2020 17:10:00 29.8 C 14.7 g/m*3 29.8 C 9.7 km/h
784 27-06-2020 17:15:00 29.3 C 14.31 g/m*3 29.3 C 20.9 km/h
785 27-06-2020 17:20:00 28.5 C 14.25 g/m*3 28.5 C 16.1 km/h
786 27-06-2020 17:25:00 28.6 C 14.33 g/m*3 28.6 C 9.7 km/h
787 27-06-2020 17:30:00 28.7 C 14.41 g/m*3 28.7 C 12.9 km/h
788 27-06-2020 17:35:00 28.9 C 14.57 g/m*3 28.9 C 17.7 km/h
789 27-06-2020 17:40:00 29.1 C 14.44 g/m*3 29.1 C 17.7 km/h
790 27-06-2020 17:45:00 28.5 C 14.25 g/m*3 28.5 C 16.1 km/h
791 27-06-2020 17:50:00 28.1 C 14.22 g/m*3 28.1 C 14.5 km/h
792 27-06-2020 17:55:00 27.8 C 13.72 g/m*3 27.8 C 14.5 km/h
793 27-06-2020 18:00:00 27.6 C 13.83 g/m*3 27.6 C 9.7 km/h
794 27-06-2020 18:05:00 27.2 C 13.79 g/m*3 27.2 C 19.3 km/h
795 27-06-2020 18:10:00 27.1 C 13.97 g/m*3 27.1 C 12.9 km/h
796 27-06-2020 18:15:00 27.3 C 14.39 g/m*3 27.3 C 12.9 km/h
797 27-06-2020 18:20:00 28 C 14.14 g/m*3 28 C 12.9 km/h
798 27-06-2020 18:25:00 28.5 C 13.7 g/m*3 28.5 C 14.5 km/h
799 27-06-2020 18:30:00 28.3 C 14.1 g/m*3 28.3 C 16.1 km/h
800 27-06-2020 18:35:00 28.3 C 14.38 g/m*3 28.3 C 6.4 km/h
Sensor: Nr:Datum:Temp:Abs-Feuchte:Windchill:Wind:
Aussen-T/F 801 27-06-2020 18:40:00 28.3 C 14.1 g/m*3 28.3 C 9.7 km/h
802 27-06-2020 18:45:00 28.6 C 14.33 g/m*3 28.6 C 11.3 km/h
803 27-06-2020 18:50:00 28.7 C 14.13 g/m*3 28.7 C 22.5 km/h
804 27-06-2020 18:55:00 28.6 C 14.05 g/m*3 28.6 C 12.9 km/h
805 27-06-2020 19:00:00 28.1 C 14.22 g/m*3 28.1 C 11.3 km/h
806 27-06-2020 19:05:00 27.7 C 13.91 g/m*3 27.7 C 12.9 km/h
807 27-06-2020 19:10:00 27.3 C 13.87 g/m*3 27.3 C 11.3 km/h
808 27-06-2020 19:15:00 27 C 13.64 g/m*3 27 C 14.5 km/h
809 27-06-2020 19:20:00 26.8 C 13.74 g/m*3 26.8 C 9.7 km/h
810 27-06-2020 19:25:00 26.6 C 13.59 g/m*3 26.6 C 12.9 km/h
811 27-06-2020 19:30:00 26.4 C 13.69 g/m*3 26.4 C 12.9 km/h
812 27-06-2020 19:35:00 26.3 C 13.62 g/m*3 26.3 C 11.3 km/h
813 27-06-2020 19:40:00 26.2 C 13.54 g/m*3 26.2 C 12.9 km/h
814 27-06-2020 19:45:00 26.1 C 13.46 g/m*3 26.1 C 11.3 km/h
815 27-06-2020 19:50:00 26.1 C 13.71 g/m*3 26.1 C 6.4 km/h
816 27-06-2020 19:55:00 25.9 C 13.32 g/m*3 25.9 C 9.7 km/h
817 27-06-2020 20:00:00 25.9 C 13.56 g/m*3 25.9 C 4.8 km/h
818 27-06-2020 20:05:00 25.9 C 13.56 g/m*3 25.9 C 3.2 km/h
819 27-06-2020 20:10:00 25.8 C 13.96 g/m*3 25.8 C 8.1 km/h
820 27-06-2020 20:15:00 25.7 C 13.89 g/m*3 25.7 C 8.1 km/h
821 27-06-2020 20:20:00 25.6 C 13.33 g/m*3 25.6 C 16.1 km/h
822 27-06-2020 20:25:00 25.6 C 13.57 g/m*3 25.6 C 9.7 km/h
823 27-06-2020 20:30:00 25.5 C 13.73 g/m*3 25.5 C 6.4 km/h
824 27-06-2020 20:35:00 25.4 C 13.89 g/m*3 25.4 C 8.1 km/h
825 27-06-2020 20:40:00 25.3 C 13.34 g/m*3 25.3 C 9.7 km/h
Sensor: Nr:Datum:Temp:Abs-Feuchte:Windchill:Wind:
Aussen-T/F 826 27-06-2020 20:45:00 25.3 C 13.34 g/m*3 25.3 C 11.3 km/h
827 27-06-2020 20:50:00 25.2 C 13.27 g/m*3 25.2 C 12.9 km/h
828 27-06-2020 20:55:00 25.1 C 13.2 g/m*3 25.1 C 8.1 km/h
829 27-06-2020 21:00:00 25.1 C 13.43 g/m*3 25.1 C 6.4 km/h
830 27-06-2020 21:05:00 24.9 C 13.28 g/m*3 24.9 C 9.7 km/h
831 27-06-2020 21:10:00 24.9 C 13.51 g/m*3 24.9 C 1.6 km/h
832 27-06-2020 21:15:00 24.7 C 13.35 g/m*3 24.7 C 4.8 km/h
833 27-06-2020 21:20:00 24.7 C 13.81 g/m*3 24.7 C 4.8 km/h
834 27-06-2020 21:25:00 24.4 C 13.8 g/m*3 24.4 C 9.7 km/h
835 27-06-2020 21:30:00 24.3 C 13.72 g/m*3 24.3 C 4.8 km/h
836 27-06-2020 21:35:00 24.2 C 13.86 g/m*3 24.2 C 6.4 km/h
837 27-06-2020 21:40:00 24.1 C 13.78 g/m*3 24.1 C 3.2 km/h
838 27-06-2020 21:45:00 23.9 C 13.85 g/m*3 23.9 C 8.1 km/h
839 27-06-2020 21:50:00 23.7 C 13.69 g/m*3 23.7 C 3.2 km/h
840 27-06-2020 21:55:00 23.6 C 13.82 g/m*3 23.6 C 4.8 km/h
841 27-06-2020 22:00:00 23.4 C 13.88 g/m*3 23.4 C 4.8 km/h
842 27-06-2020 22:05:00 23.3 C 13.8 g/m*3 23.3 C 3.2 km/h
843 27-06-2020 22:10:00 23.2 C 13.93 g/m*3 23.2 C 3.2 km/h
844 27-06-2020 22:15:00 23.1 C 13.85 g/m*3 23.1 C 3.2 km/h
845 27-06-2020 22:20:00 22.9 C 13.9 g/m*3 22.9 C 1.6 km/h
846 27-06-2020 22:25:00 22.8 C 13.82 g/m*3 22.8 C 4.8 km/h
847 27-06-2020 22:30:00 22.7 C 13.74 g/m*3 22.7 C 3.2 km/h
848 27-06-2020 22:35:00 22.7 C 13.94 g/m*3 22.7 C 3.2 km/h
849 27-06-2020 22:40:00 22.6 C 13.86 g/m*3 22.6 C 3.2 km/h
850 27-06-2020 22:45:00 22.6 C 14.06 g/m*3 22.6 C 3.2 km/h
Sensor: Nr:Datum:Temp:Abs-Feuchte:Windchill:Wind:
Aussen-T/F 851 27-06-2020 22:50:00 22.5 C 14.18 g/m*3 22.5 C 4.8 km/h
852 27-06-2020 22:55:00 22.4 C 14.1 g/m*3 22.4 C 3.2 km/h
853 27-06-2020 23:00:00 22.2 C 13.94 g/m*3 22.2 C 4.8 km/h
854 27-06-2020 23:05:00 22.1 C 14.05 g/m*3 22.1 C 3.2 km/h
855 27-06-2020 23:10:00 21.9 C 14.09 g/m*3 21.9 C 3.2 km/h
856 27-06-2020 23:15:00 21.8 C 14.01 g/m*3 21.8 C 0 km/h
857 27-06-2020 23:20:00 21.8 C 14.2 g/m*3 21.8 C 0 km/h
858 27-06-2020 23:25:00 21.7 C 14.12 g/m*3 21.7 C 0 km/h
859 27-06-2020 23:30:00 21.6 C 14.22 g/m*3 21.6 C 0 km/h
860 27-06-2020 23:35:00 21.6 C 14.22 g/m*3 21.6 C 0 km/h
861 27-06-2020 23:40:00 21.5 C 14.14 g/m*3 21.5 C 0 km/h
862 27-06-2020 23:45:00 21.5 C 13.95 g/m*3 21.5 C 4.8 km/h
863 27-06-2020 23:50:00 21.6 C 14.22 g/m*3 21.6 C 1.6 km/h
864 27-06-2020 23:55:00 21.6 C 14.22 g/m*3 21.6 C 1.6 km/h

Legende:
   Min
   Max


Maximal/Minimal-Werte vom 25.06.2020 - 27.06.2020

Sensor Min Max Avg
Temp
(Aussen-T/F)
13.7 °C
26-06-2020  05:50:00
32.1 °C
26-06-2020  16:40:00
22.02 °C
Abs-Feuchte
(Aussen-T/F)
10.7 g/m*3
25-06-2020  03:20:00
15.83 g/m*3
27-06-2020  13:55:00
13.3 g/m*3
Windchill
(Aussen-T/F)
13.7 C
26-06-2020  05:50:00
32.1 C
26-06-2020  16:40:00
22 C

Die Daten stammen von einer Davis Vantage Pro 2 Wetter-Station und werden unter Linux mit der Software wview2wettercgi und aufbereitet. Alle Angaben erfolgen ohne Gewähr für ihre Vollständigkeit oder Richtigkeit.
Kontakt: Rainer Krienke krienke@uni-koblenz.de . Meine Webseiten an der Uni Koblenz oder privat.
Version: $Revision: 0.78 $